TimePST,TemperatureF,Dew PointF,Humidity,Sea Level PressureIn,VisibilityMPH,Wind Direction,Wind SpeedMPH,Gust SpeedMPH,PrecipitationIn,Events,Conditions,WindDirDegrees,DateUTC
12:16 AM,53.6,48.2,82,30.08,5.0,Calm,Calm,-,N/A,,Haze,0,2011-11-16 08:16:00
12:53 AM,53.1,48.0,83,30.08,5.0,Calm,Calm,-,N/A,,Haze,0,2011-11-16 08:53:00
1:09 AM,53.6,48.2,82,30.08,5.0,Calm,Calm,-,N/A,,Haze,0,2011-11-16 09:09:00
1:53 AM,53.1,48.0,83,30.08,5.0,Calm,Calm,-,N/A,,Haze,0,2011-11-16 09:53:00
2:53 AM,54.0,48.9,83,30.08,5.0,Calm,Calm,-,N/A,,Haze,0,2011-11-16 10:53:00
3:28 AM,55.4,50.0,82,30.08,5.0,Calm,Calm,-,N/A,,Haze,0,2011-11-16 11:28:00
3:53 AM,55.0,51.1,86,30.08,5.0,Calm,Calm,-,N/A,,Overcast,0,2011-11-16 11:53:00
4:53 AM,54.0,50.0,86,30.08,4.0,Calm,Calm,-,N/A,,Overcast,0,2011-11-16 12:53:00
5:53 AM,54.0,48.9,83,30.09,4.0,Calm,Calm,-,N/A,,Haze,0,2011-11-16 13:53:00
6:39 AM,53.6,48.2,82,30.11,2.5,Calm,Calm,-,N/A,,Haze,0,2011-11-16 14:39:00
6:53 AM,54.0,50.0,86,30.12,2.5,Calm,Calm,-,N/A,,Overcast,0,2011-11-16 14:53:00
8:17 AM,57.2,51.8,82,30.14,3.0,Calm,Calm,-,N/A,,Haze,0,2011-11-16 16:17:00
8:24 AM,59.0,51.8,77,30.14,2.5,NNW,3.5,-,N/A,,Haze,330,2011-11-16 16:24:00
8:53 AM,60.1,53.1,78,30.14,2.5,Calm,Calm,-,N/A,,Haze,0,2011-11-16 16:53:00
9:02 AM,60.8,53.6,77,30.15,3.0,Calm,Calm,-,N/A,,Haze,0,2011-11-16 17:02:00
9:53 AM,62.1,52.0,70,30.15,3.0,Calm,Calm,-,N/A,,Haze,0,2011-11-16 17:53:00
10:18 AM,62.6,53.6,72,30.15,3.0,Calm,Calm,-,N/A,,Haze,0,2011-11-16 18:18:00
10:53 AM,64.9,52.0,63,30.13,3.0,Calm,Calm,-,N/A,,Haze,0,2011-11-16 18:53:00
11:53 AM,66.9,52.0,59,30.10,3.0,Variable,3.5,-,N/A,,Haze,0,2011-11-16 19:53:00
12:53 PM,70.0,52.0,53,30.08,4.0,West,4.6,-,N/A,,Haze,270,2011-11-16 20:53:00
1:53 PM,71.1,51.1,49,30.07,4.0,West,4.6,-,N/A,,Haze,270,2011-11-16 21:53:00
2:53 PM,71.1,54.0,55,30.05,4.0,Calm,Calm,-,N/A,,Haze,0,2011-11-16 22:53:00
4:53 PM,64.9,53.1,65,30.07,5.0,WNW,5.8,-,N/A,,Haze,290,2011-11-17 00:53:00
5:53 PM,63.0,53.1,70,30.08,6.0,WNW,3.5,-,N/A,,Haze,300,2011-11-17 01:53:00
6:53 PM,61.0,53.1,75,30.10,5.0,Calm,Calm,-,N/A,,Haze,0,2011-11-17 02:53:00
7:53 PM,60.1,53.1,78,30.10,5.0,Calm,Calm,-,N/A,,Haze,0,2011-11-17 03:53:00
8:53 PM,59.0,53.1,81,30.12,5.0,Calm,Calm,-,N/A,,Haze,0,2011-11-17 04:53:00
9:53 PM,57.9,52.0,81,30.13,5.0,Calm,Calm,-,N/A,,Haze,0,2011-11-17 05:53:00
10:53 PM,57.0,52.0,83,30.12,4.0,Calm,Calm,-,N/A,,Haze,0,2011-11-17 06:53:00
11:53 PM,54.0,51.1,90,30.12,4.0,Calm,Calm,-,N/A,,Clear,0,2011-11-17 07:53:00